Time,TemperatureF,DewpointF,PressureIn,WindDirection,WindDirectionDegrees,WindSpeedMPH,WindSpeedGustMPH,Humidity,HourlyPrecipIn,Conditions,Clouds,dailyrainin,SoftwareType,DateUTC
2013-01-24 00:02:00,39.0,22.0,-100.00,North,-999,-999.0,-999.0,50,-99.99,,,-99.99,,2013-01-24 07:02:00,
2013-01-24 00:12:00,39.0,23.0,-100.00,North,-999,-999.0,-999.0,51,-99.99,,,-99.99,,2013-01-24 07:12:00,
2013-01-24 00:22:00,39.0,23.0,-100.00,North,-999,-999.0,-999.0,51,-99.99,,,-99.99,,2013-01-24 07:22:00,
2013-01-24 00:32:00,39.0,23.0,-100.00,North,-999,-999.0,-999.0,51,-99.99,,,-99.99,,2013-01-24 07:32:00,
2013-01-24 00:42:00,40.0,23.0,-100.00,North,-999,-999.0,-999.0,50,-99.99,,,-99.99,,2013-01-24 07:42:00,
2013-01-24 00:53:00,40.0,23.0,-100.00,North,-999,-999.0,-999.0,50,-99.99,,,-99.99,,2013-01-24 07:53:00,
2013-01-24 01:02:00,39.0,23.0,-100.00,North,-999,-999.0,-999.0,52,-99.99,,,-99.99,,2013-01-24 08:02:00,
2013-01-24 01:12:00,39.0,23.0,-100.00,North,-999,-999.0,-999.0,52,-99.99,,,-99.99,,2013-01-24 08:12:00,
2013-01-24 01:22:00,39.0,23.0,-100.00,North,-999,-999.0,-999.0,52,-99.99,,,-99.99,,2013-01-24 08:22:00,
2013-01-24 01:32:00,39.0,23.0,-100.00,North,-999,-999.0,-999.0,52,-99.99,,,-99.99,,2013-01-24 08:32:00,
2013-01-24 01:42:00,39.0,23.0,-100.00,North,-999,-999.0,-999.0,53,-99.99,,,-99.99,,2013-01-24 08:42:00,
2013-01-24 01:53:00,39.0,23.0,-100.00,North,-999,-999.0,-999.0,53,-99.99,,,-99.99,,2013-01-24 08:53:00,
2013-01-24 02:02:00,38.0,23.0,-100.00,North,-999,-999.0,-999.0,52,-99.99,,,-99.99,,2013-01-24 09:02:00,
2013-01-24 02:12:00,38.0,22.0,-100.00,North,-999,-999.0,-999.0,52,-99.99,,,-99.99,,2013-01-24 09:12:00,
2013-01-24 02:22:00,38.0,22.0,-100.00,North,-999,-999.0,-999.0,52,-99.99,,,-99.99,,2013-01-24 09:22:00,
2013-01-24 02:32:00,38.0,22.0,-100.00,North,-999,-999.0,-999.0,52,-99.99,,,-99.99,,2013-01-24 09:32:00,
2013-01-24 02:42:00,37.0,22.0,-100.00,North,-999,-999.0,-999.0,54,-99.99,,,-99.99,,2013-01-24 09:42:00,
2013-01-24 02:53:00,37.0,22.0,-100.00,North,-999,-999.0,-999.0,54,-99.99,,,-99.99,,2013-01-24 09:53:00,
2013-01-24 03:02:00,37.0,22.0,-100.00,North,-999,-999.0,-999.0,55,-99.99,,,-99.99,,2013-01-24 10:02:00,
2013-01-24 03:12:00,37.0,23.0,-100.00,North,-999,-999.0,-999.0,57,-99.99,,,-99.99,,2013-01-24 10:12:00,
2013-01-24 03:22:00,37.0,23.0,-100.00,North,-999,-999.0,-999.0,57,-99.99,,,-99.99,,2013-01-24 10:22:00,
2013-01-24 03:32:00,37.0,23.0,-100.00,North,-999,-999.0,-999.0,57,-99.99,,,-99.99,,2013-01-24 10:32:00,
2013-01-24 03:42:00,37.0,24.0,-100.00,North,-999,-999.0,-999.0,58,-99.99,,,-99.99,,2013-01-24 10:42:00,
2013-01-24 03:53:00,37.0,24.0,-100.00,North,-999,-999.0,-999.0,58,-99.99,,,-99.99,,2013-01-24 10:53:00,
2013-01-24 04:02:00,38.0,25.0,-100.00,North,-999,-999.0,-999.0,57,-99.99,,,-99.99,,2013-01-24 11:02:00,
2013-01-24 04:12:00,38.0,25.0,-100.00,North,-999,-999.0,-999.0,59,-99.99,,,-99.99,,2013-01-24 11:12:00,
2013-01-24 04:22:00,38.0,25.0,-100.00,North,-999,-999.0,-999.0,59,-99.99,,,-99.99,,2013-01-24 11:22:00,
2013-01-24 04:32:00,38.0,25.0,-100.00,North,-999,-999.0,-999.0,59,-99.99,,,-99.99,,2013-01-24 11:32:00,
2013-01-24 04:42:00,39.0,26.0,-100.00,North,-999,-999.0,-999.0,60,-99.99,,,-99.99,,2013-01-24 11:42:00,
2013-01-24 04:53:00,39.0,26.0,-100.00,North,-999,-999.0,-999.0,60,-99.99,,,-99.99,,2013-01-24 11:53:00,
2013-01-24 05:03:00,39.0,28.0,-100.00,North,-999,-999.0,-999.0,62,-99.99,,,-99.99,,2013-01-24 12:03:00,
2013-01-24 05:12:00,40.0,29.0,-100.00,North,-999,-999.0,-999.0,65,-99.99,,,-99.99,,2013-01-24 12:12:00,
2013-01-24 05:22:00,40.0,29.0,-100.00,North,-999,-999.0,-999.0,65,-99.99,,,-99.99,,2013-01-24 12:22:00,
2013-01-24 05:32:00,40.0,29.0,-100.00,North,-999,-999.0,-999.0,65,-99.99,,,-99.99,,2013-01-24 12:32:00,
2013-01-24 05:42:00,39.0,31.0,-100.00,North,-999,-999.0,-999.0,71,-99.99,,,-99.99,,2013-01-24 12:42:00,
2013-01-24 05:53:00,39.0,31.0,-100.00,North,-999,-999.0,-999.0,71,-99.99,,,-99.99,,2013-01-24 12:53:00,
2013-01-24 06:02:00,39.0,31.0,-100.00,North,-999,-999.0,-999.0,72,-99.99,,,-99.99,,2013-01-24 13:02:00,
2013-01-24 06:12:00,39.0,32.0,-100.00,North,-999,-999.0,-999.0,76,-99.99,,,-99.99,,2013-01-24 13:12:00,
2013-01-24 06:22:00,39.0,32.0,-100.00,North,-999,-999.0,-999.0,76,-99.99,,,-99.99,,2013-01-24 13:22:00,
2013-01-24 06:32:00,39.0,32.0,-100.00,North,-999,-999.0,-999.0,76,-99.99,,,-99.99,,2013-01-24 13:32:00,
2013-01-24 06:42:00,37.0,33.0,-100.00,North,-999,-999.0,-999.0,85,-99.99,,,-99.99,,2013-01-24 13:42:00,
2013-01-24 06:53:00,37.0,33.0,-100.00,North,-999,-999.0,-999.0,85,-99.99,,,-99.99,,2013-01-24 13:53:00,
2013-01-24 07:02:00,36.0,33.0,-100.00,North,-999,-999.0,-999.0,88,-99.99,,,-99.99,,2013-01-24 14:02:00,
2013-01-24 07:12:00,36.0,33.0,-100.00,North,-999,-999.0,-999.0,91,-99.99,,,-99.99,,2013-01-24 14:12:00,
2013-01-24 07:22:00,36.0,33.0,-100.00,North,-999,-999.0,-999.0,91,-99.99,,,-99.99,,2013-01-24 14:22:00,
2013-01-24 07:32:00,36.0,33.0,-100.00,North,-999,-999.0,-999.0,91,-99.99,,,-99.99,,2013-01-24 14:32:00,
2013-01-24 07:43:00,34.0,31.0,-100.00,North,-999,-999.0,-999.0,86,-99.99,,,-99.99,,2013-01-24 14:43:00,
2013-01-24 07:54:00,34.0,31.0,-100.00,North,-999,-999.0,-999.0,86,-99.99,,,-99.99,,2013-01-24 14:54:00,
2013-01-24 08:03:00,33.0,32.0,-100.00,North,-999,-999.0,-999.0,95,-99.99,,,-99.99,,2013-01-24 15:03:00,
2013-01-24 08:12:00,31.0,31.0,-100.00,North,-999,-999.0,-999.0,100,-99.99,,,-99.99,,2013-01-24 15:12:00,
2013-01-24 08:22:00,31.0,31.0,-100.00,North,-999,-999.0,-999.0,100,-99.99,,,-99.99,,2013-01-24 15:22:00,
2013-01-24 08:32:00,31.0,31.0,-100.00,North,-999,-999.0,-999.0,100,-99.99,,,-99.99,,2013-01-24 15:32:00,
2013-01-24 08:42:00,31.0,31.0,-100.00,North,-999,-999.0,-999.0,100,-99.99,,,-99.99,,2013-01-24 15:42:00,
2013-01-24 08:53:00,31.0,31.0,-100.00,North,-999,-999.0,-999.0,100,-99.99,,,-99.99,,2013-01-24 15:53:00,
2013-01-24 09:03:00,31.0,31.0,-100.00,North,-999,-999.0,-999.0,100,-99.99,,,-99.99,,2013-01-24 16:03:00,
2013-01-24 09:12:00,31.0,31.0,-100.00,North,-999,-999.0,-999.0,100,-99.99,,,-99.99,,2013-01-24 16:12:00,
2013-01-24 09:22:00,31.0,31.0,-100.00,North,-999,-999.0,-999.0,100,-99.99,,,-99.99,,2013-01-24 16:22:00,
2013-01-24 09:33:00,31.0,31.0,-100.00,North,-999,-999.0,-999.0,100,-99.99,,,-99.99,,2013-01-24 16:33:00,
2013-01-24 09:42:00,31.0,31.0,-100.00,North,-999,-999.0,-999.0,100,-99.99,,,-99.99,,2013-01-24 16:42:00,
2013-01-24 10:02:00,33.0,33.0,-100.00,North,-999,-999.0,-999.0,100,-99.99,,,-99.99,,2013-01-24 17:02:00,
2013-01-24 10:11:00,34.0,34.0,-100.00,North,-999,-999.0,-999.0,100,-99.99,,,-99.99,,2013-01-24 17:11:00,
2013-01-24 10:21:00,34.0,34.0,-100.00,North,-999,-999.0,-999.0,100,-99.99,,,-99.99,,2013-01-24 17:21:00,
2013-01-24 10:31:00,34.0,34.0,-100.00,North,-999,-999.0,-999.0,100,-99.99,,,-99.99,,2013-01-24 17:31:00,
2013-01-24 10:42:00,34.0,34.0,-100.00,North,-999,-999.0,-999.0,100,-99.99,,,-99.99,,2013-01-24 17:42:00,
2013-01-24 10:52:00,34.0,34.0,-100.00,North,-999,-999.0,-999.0,100,-99.99,,,-99.99,,2013-01-24 17:52:00,
2013-01-24 11:02:00,34.0,34.0,-100.00,North,-999,-999.0,-999.0,100,-99.99,,,-99.99,,2013-01-24 18:02:00,
2013-01-24 11:11:00,36.0,36.0,-100.00,North,-999,-999.0,-999.0,100,-99.99,,,-99.99,,2013-01-24 18:11:00,
2013-01-24 11:22:00,36.0,36.0,-100.00,North,-999,-999.0,-999.0,100,-99.99,,,-99.99,,2013-01-24 18:22:00,
2013-01-24 11:32:00,36.0,36.0,-100.00,North,-999,-999.0,-999.0,100,-99.99,,,-99.99,,2013-01-24 18:32:00,
2013-01-24 11:42:00,34.0,34.0,-100.00,North,-999,-999.0,-999.0,100,-99.99,,,-99.99,,2013-01-24 18:42:00,
2013-01-24 11:53:00,34.0,34.0,-100.00,North,-999,-999.0,-999.0,100,-99.99,,,-99.99,,2013-01-24 18:53:00,
2013-01-24 12:01:00,36.0,36.0,-100.00,North,-999,-999.0,-999.0,100,-99.99,,,-99.99,,2013-01-24 19:01:00,
2013-01-24 12:12:00,37.0,37.0,-100.00,North,-999,-999.0,-999.0,99,-99.99,,,-99.99,,2013-01-24 19:12:00,
2013-01-24 12:21:00,37.0,37.0,-100.00,North,-999,-999.0,-999.0,99,-99.99,,,-99.99,,2013-01-24 19:21:00,
2013-01-24 12:32:00,37.0,37.0,-100.00,North,-999,-999.0,-999.0,99,-99.99,,,-99.99,,2013-01-24 19:32:00,
2013-01-24 12:42:00,36.0,36.0,-100.00,North,-999,-999.0,-999.0,100,-99.99,,,-99.99,,2013-01-24 19:42:00,
2013-01-24 12:52:00,36.0,36.0,-100.00,North,-999,-999.0,-999.0,100,-99.99,,,-99.99,,2013-01-24 19:52:00,
2013-01-24 13:02:00,36.0,36.0,-100.00,North,-999,-999.0,-999.0,100,-99.99,,,-99.99,,2013-01-24 20:02:00,
2013-01-24 13:11:00,36.0,36.0,-100.00,North,-999,-999.0,-999.0,100,-99.99,,,-99.99,,2013-01-24 20:11:00,
2013-01-24 13:22:00,36.0,36.0,-100.00,North,-999,-999.0,-999.0,100,-99.99,,,-99.99,,2013-01-24 20:22:00,
2013-01-24 13:32:00,36.0,36.0,-100.00,North,-999,-999.0,-999.0,100,-99.99,,,-99.99,,2013-01-24 20:32:00,
2013-01-24 13:42:00,39.0,38.0,-100.00,North,-999,-999.0,-999.0,97,-99.99,,,-99.99,,2013-01-24 20:42:00,
2013-01-24 13:52:00,39.0,38.0,-100.00,North,-999,-999.0,-999.0,97,-99.99,,,-99.99,,2013-01-24 20:52:00,
2013-01-24 14:02:00,36.0,36.0,-100.00,North,-999,-999.0,-999.0,99,-99.99,,,-99.99,,2013-01-24 21:02:00,
2013-01-24 14:11:00,37.0,37.0,-100.00,North,-999,-999.0,-999.0,99,-99.99,,,-99.99,,2013-01-24 21:11:00,
2013-01-24 14:22:00,37.0,37.0,-100.00,North,-999,-999.0,-999.0,99,-99.99,,,-99.99,,2013-01-24 21:22:00,
2013-01-24 14:32:00,37.0,37.0,-100.00,North,-999,-999.0,-999.0,99,-99.99,,,-99.99,,2013-01-24 21:32:00,
2013-01-24 14:42:00,36.0,36.0,-100.00,North,-999,-999.0,-999.0,100,-99.99,,,-99.99,,2013-01-24 21:42:00,
2013-01-24 14:53:00,36.0,36.0,-100.00,North,-999,-999.0,-999.0,100,-99.99,,,-99.99,,2013-01-24 21:53:00,
2013-01-24 15:02:00,35.0,35.0,-100.00,North,-999,-999.0,-999.0,100,-99.99,,,-99.99,,2013-01-24 22:02:00,
2013-01-24 15:12:00,36.0,36.0,-100.00,North,-999,-999.0,-999.0,100,-99.99,,,-99.99,,2013-01-24 22:12:00,
2013-01-24 15:22:00,36.0,36.0,-100.00,North,-999,-999.0,-999.0,100,-99.99,,,-99.99,,2013-01-24 22:22:00,
2013-01-24 15:32:00,36.0,36.0,-100.00,North,-999,-999.0,-999.0,100,-99.99,,,-99.99,,2013-01-24 22:32:00,
2013-01-24 15:42:00,34.0,34.0,-100.00,North,-999,-999.0,-999.0,100,-99.99,,,-99.99,,2013-01-24 22:42:00,
2013-01-24 15:53:00,34.0,34.0,-100.00,North,-999,-999.0,-999.0,100,-99.99,,,-99.99,,2013-01-24 22:53:00,
2013-01-24 16:02:00,33.0,33.0,-100.00,North,-999,-999.0,-999.0,100,-99.99,,,-99.99,,2013-01-24 23:02:00,
2013-01-24 16:11:00,33.0,33.0,-100.00,North,-999,-999.0,-999.0,100,-99.99,,,-99.99,,2013-01-24 23:11:00,
2013-01-24 16:21:00,33.0,33.0,-100.00,North,-999,-999.0,-999.0,100,-99.99,,,-99.99,,2013-01-24 23:21:00,
2013-01-24 16:32:00,33.0,33.0,-100.00,North,-999,-999.0,-999.0,100,-99.99,,,-99.99,,2013-01-24 23:32:00,
2013-01-24 16:42:00,33.0,33.0,-100.00,North,-999,-999.0,-999.0,100,-99.99,,,-99.99,,2013-01-24 23:42:00,
2013-01-24 16:52:00,33.0,33.0,-100.00,North,-999,-999.0,-999.0,100,-99.99,,,-99.99,,2013-01-24 23:52:00,
2013-01-24 17:02:00,33.0,33.0,-100.00,North,-999,-999.0,-999.0,100,-99.99,,,-99.99,,2013-01-25 00:02:00,
2013-01-24 17:12:00,32.0,32.0,-100.00,North,-999,-999.0,-999.0,100,-99.99,,,-99.99,,2013-01-25 00:12:00,
2013-01-24 17:22:00,32.0,32.0,-100.00,North,-999,-999.0,-999.0,100,-99.99,,,-99.99,,2013-01-25 00:22:00,
2013-01-24 17:32:00,32.0,32.0,-100.00,North,-999,-999.0,-999.0,100,-99.99,,,-99.99,,2013-01-25 00:32:00,
2013-01-24 17:41:00,32.0,32.0,-100.00,North,-999,-999.0,-999.0,100,-99.99,,,-99.99,,2013-01-25 00:41:00,
2013-01-24 17:52:00,32.0,32.0,-100.00,North,-999,-999.0,-999.0,100,-99.99,,,-99.99,,2013-01-25 00:52:00,
2013-01-24 18:01:00,32.0,32.0,-100.00,North,-999,-999.0,-999.0,100,-99.99,,,-99.99,,2013-01-25 01:01:00,
2013-01-24 18:11:00,32.0,32.0,-100.00,North,-999,-999.0,-999.0,100,-99.99,,,-99.99,,2013-01-25 01:11:00,
2013-01-24 18:21:00,32.0,32.0,-100.00,North,-999,-999.0,-999.0,100,-99.99,,,-99.99,,2013-01-25 01:21:00,
2013-01-24 18:31:00,32.0,32.0,-100.00,North,-999,-999.0,-999.0,100,-99.99,,,-99.99,,2013-01-25 01:31:00,
2013-01-24 18:42:00,32.0,32.0,-100.00,North,-999,-999.0,-999.0,100,-99.99,,,-99.99,,2013-01-25 01:42:00,
2013-01-24 18:52:00,32.0,32.0,-100.00,North,-999,-999.0,-999.0,100,-99.99,,,-99.99,,2013-01-25 01:52:00,
2013-01-24 19:02:00,32.0,32.0,-100.00,North,-999,-999.0,-999.0,100,-99.99,,,-99.99,,2013-01-25 02:02:00,
2013-01-24 19:11:00,32.0,32.0,-100.00,North,-999,-999.0,-999.0,100,-99.99,,,-99.99,,2013-01-25 02:11:00,
2013-01-24 19:22:00,32.0,32.0,-100.00,North,-999,-999.0,-999.0,100,-99.99,,,-99.99,,2013-01-25 02:22:00,
2013-01-24 19:32:00,32.0,32.0,-100.00,North,-999,-999.0,-999.0,100,-99.99,,,-99.99,,2013-01-25 02:32:00,
2013-01-24 19:42:00,31.0,31.0,-100.00,North,-999,-999.0,-999.0,100,-99.99,,,-99.99,,2013-01-25 02:42:00,
2013-01-24 19:52:00,31.0,31.0,-100.00,North,-999,-999.0,-999.0,100,-99.99,,,-99.99,,2013-01-25 02:52:00,
2013-01-24 20:02:00,32.0,32.0,-100.00,North,-999,-999.0,-999.0,100,-99.99,,,-99.99,,2013-01-25 03:02:00,
2013-01-24 20:12:00,32.0,32.0,-100.00,North,-999,-999.0,-999.0,100,-99.99,,,-99.99,,2013-01-25 03:12:00,
2013-01-24 20:22:00,32.0,32.0,-100.00,North,-999,-999.0,-999.0,100,-99.99,,,-99.99,,2013-01-25 03:22:00,
2013-01-24 20:32:00,32.0,32.0,-100.00,North,-999,-999.0,-999.0,100,-99.99,,,-99.99,,2013-01-25 03:32:00,
2013-01-24 20:41:00,32.0,32.0,-100.00,North,-999,-999.0,-999.0,100,-99.99,,,-99.99,,2013-01-25 03:41:00,
2013-01-24 20:52:00,32.0,32.0,-100.00,North,-999,-999.0,-999.0,100,-99.99,,,-99.99,,2013-01-25 03:52:00,
2013-01-24 21:02:00,32.0,32.0,-100.00,North,-999,-999.0,-999.0,100,-99.99,,,-99.99,,2013-01-25 04:02:00,
2013-01-24 21:11:00,32.0,32.0,-100.00,North,-999,-999.0,-999.0,100,-99.99,,,-99.99,,2013-01-25 04:11:00,
2013-01-24 21:22:00,32.0,32.0,-100.00,North,-999,-999.0,-999.0,100,-99.99,,,-99.99,,2013-01-25 04:22:00,
2013-01-24 21:31:00,32.0,32.0,-100.00,North,-999,-999.0,-999.0,100,-99.99,,,-99.99,,2013-01-25 04:31:00,
2013-01-24 21:41:00,32.0,32.0,-100.00,North,-999,-999.0,-999.0,100,-99.99,,,-99.99,,2013-01-25 04:41:00,
2013-01-24 21:51:00,32.0,32.0,-100.00,North,-999,-999.0,-999.0,100,-99.99,,,-99.99,,2013-01-25 04:51:00,
2013-01-24 22:03:00,32.0,32.0,-100.00,North,-999,-999.0,-999.0,100,-99.99,,,-99.99,,2013-01-25 05:03:00,
2013-01-24 22:12:00,31.0,31.0,-100.00,North,-999,-999.0,-999.0,100,-99.99,,,-99.99,,2013-01-25 05:12:00,
2013-01-24 22:22:00,31.0,31.0,-100.00,North,-999,-999.0,-999.0,100,-99.99,,,-99.99,,2013-01-25 05:22:00,
2013-01-24 22:32:00,31.0,31.0,-100.00,North,-999,-999.0,-999.0,100,-99.99,,,-99.99,,2013-01-25 05:32:00,
2013-01-24 22:42:00,31.0,31.0,-100.00,North,-999,-999.0,-999.0,100,-99.99,,,-99.99,,2013-01-25 05:42:00,
2013-01-24 22:52:00,31.0,31.0,-100.00,North,-999,-999.0,-999.0,100,-99.99,,,-99.99,,2013-01-25 05:52:00,
2013-01-24 23:02:00,31.0,31.0,-100.00,North,-999,-999.0,-999.0,100,-99.99,,,-99.99,,2013-01-25 06:02:00,
2013-01-24 23:11:00,31.0,31.0,-100.00,North,-999,-999.0,-999.0,100,-99.99,,,-99.99,,2013-01-25 06:11:00,
2013-01-24 23:21:00,31.0,31.0,-100.00,North,-999,-999.0,-999.0,100,-99.99,,,-99.99,,2013-01-25 06:21:00,
2013-01-24 23:31:00,31.0,31.0,-100.00,North,-999,-999.0,-999.0,100,-99.99,,,-99.99,,2013-01-25 06:31:00,
2013-01-24 23:41:00,30.0,30.0,-100.00,North,-999,-999.0,-999.0,100,-99.99,,,-99.99,,2013-01-25 06:41:00,
2013-01-24 23:52:00,30.0,30.0,-100.00,North,-999,-999.0,-999.0,100,-99.99,,,-99.99,,2013-01-25 06:52:00,